Time;durP1;ratioP1;P1;durP2;ratioP2;P2;SDS_P1;SDS_P2;PMS_P1;PMS_P2;Temp;Humidity;BMP_temperature;BMP_pressure;BME280_temperature;BME280_humidity;BME280_pressure;Samples;Min_cycle;Max_cycle;Signal;HPM_P1;HPM_P2
2021/07/05 00:02:17;;;;;;;4.45;1.70;;;20.70;99.90;;;;;;5013437;28;20096;-73
2021/07/05 00:04:44;;;;;;;1.65;1.45;;;20.70;99.90;;;;;;5013912;28;20474;-73
2021/07/05 00:07:10;;;;;;;3.83;1.85;;;20.80;99.90;;;;;;5013860;28;20029;-74
2021/07/05 00:09:36;;;;;;;7.18;2.28;;;20.80;99.90;;;;;;5013809;28;20368;-72
2021/07/05 00:12:03;;;;;;;2.42;1.48;;;20.80;99.90;;;;;;5013106;28;20022;-73
2021/07/05 00:14:29;;;;;;;8.90;1.73;;;20.80;99.90;;;;;;5026150;28;20035;-73
2021/07/05 00:16:55;;;;;;;5.72;1.42;;;20.80;99.90;;;;;;5027079;28;20018;-73
2021/07/05 00:19:20;;;;;;;3.30;1.60;;;20.80;99.90;;;;;;5013396;28;20025;-73
2021/07/05 00:21:47;;;;;;;3.55;1.90;;;20.90;99.90;;;;;;5013299;28;20100;-73
2021/07/05 00:24:13;;;;;;;4.25;1.70;;;20.90;99.90;;;;;;5013563;28;20034;-72
2021/07/05 00:26:38;;;;;;;6.85;1.73;;;21.00;99.90;;;;;;5013279;28;20137;-72
2021/07/05 00:29:04;;;;;;;4.03;2.10;;;21.00;99.90;;;;;;5013274;28;20025;-74
2021/07/05 00:31:30;;;;;;;5.32;2.28;;;21.10;99.90;;;;;;5012416;28;20029;-74
2021/07/05 00:33:56;;;;;;;6.25;2.47;;;21.00;99.90;;;;;;5011466;28;20072;-74
2021/07/05 00:36:21;;;;;;;6.20;2.40;;;21.10;99.90;;;;;;5011952;28;20113;-72
2021/07/05 00:38:47;;;;;;;5.30;2.47;;;21.20;99.90;;;;;;5012693;28;20476;-74
2021/07/05 00:41:13;;;;;;;7.85;2.70;;;21.10;99.90;;;;;;5011983;28;20075;-73
2021/07/05 00:43:38;;;;;;;9.95;2.95;;;21.10;99.90;;;;;;5012648;28;20065;-73
2021/07/05 00:46:04;;;;;;;5.45;2.28;;;21.10;99.90;;;;;;5012749;28;20064;-73
2021/07/05 00:48:30;;;;;;;4.30;2.67;;;21.10;99.90;;;;;;5012850;28;20132;-73
2021/07/05 00:50:56;;;;;;;3.75;2.55;;;21.00;99.90;;;;;;5012726;28;20042;-73
2021/07/05 00:53:22;;;;;;;5.70;2.80;;;21.00;99.90;;;;;;5011278;28;20072;-73
2021/07/05 00:55:48;;;;;;;5.30;2.45;;;21.00;99.90;;;;;;5009903;28;20474;-73
2021/07/05 00:58:15;;;;;;;4.78;2.65;;;20.90;99.90;;;;;;5009384;28;20029;-74
2021/07/05 01:00:40;;;;;;;4.13;2.47;;;20.90;99.90;;;;;;5020890;28;20424;-73
2021/07/05 01:03:06;;;;;;;9.25;3.10;;;20.80;99.90;;;;;;5010817;28;20025;-73
2021/07/05 01:05:33;;;;;;;5.57;2.90;;;20.70;99.90;;;;;;5009565;28;20117;-73
2021/07/05 01:07:59;;;;;;;6.78;2.80;;;20.60;99.90;;;;;;5011749;28;20014;-74
2021/07/05 01:10:26;;;;;;;6.30;3.28;;;20.50;99.90;;;;;;5013046;28;20497;-74
2021/07/05 01:12:53;;;;;;;5.80;2.72;;;20.40;99.90;;;;;;5012381;28;20032;-74
2021/07/05 01:15:21;;;;;;;9.82;3.17;;;20.40;99.90;;;;;;5012541;28;20025;-73
2021/07/05 01:17:48;;;;;;;12.57;3.70;;;20.30;99.90;;;;;;5012677;28;20049;-75
2021/07/05 01:20:17;;;;;;;8.65;2.55;;;20.30;99.90;;;;;;5012691;28;20081;-73
2021/07/05 01:22:43;;;;;;;7.72;3.20;;;20.30;99.90;;;;;;5010734;28;20950;-75
2021/07/05 01:25:12;;;;;;;5.13;2.80;;;20.30;99.90;;;;;;5012164;28;20029;-74
2021/07/05 01:27:39;;;;;;;8.57;2.90;;;20.30;99.90;;;;;;5011132;28;20092;-73
2021/07/05 01:30:06;;;;;;;4.93;2.58;;;20.40;99.90;;;;;;5012441;28;20029;-73
2021/07/05 01:32:32;;;;;;;3.30;2.78;;;20.40;99.90;;;;;;5012222;28;20028;-72
2021/07/05 01:34:57;;;;;;;4.45;2.60;;;20.50;99.90;;;;;;5012367;28;20105;-75
2021/07/05 01:37:23;;;;;;;4.32;2.47;;;20.50;99.90;;;;;;5012055;28;20036;-73
2021/07/05 01:39:49;;;;;;;3.20;2.28;;;20.50;99.90;;;;;;5012018;28;20026;-73
2021/07/05 01:42:16;;;;;;;4.40;3.00;;;20.50;99.90;;;;;;5012545;28;20025;-75
2021/07/05 01:44:42;;;;;;;3.47;2.60;;;20.50;99.90;;;;;;5012308;28;20080;-74
2021/07/05 01:47:07;;;;;;;3.58;2.65;;;20.50;99.90;;;;;;5024711;28;20486;-73
2021/07/05 01:49:33;;;;;;;6.18;2.55;;;20.50;99.90;;;;;;5013856;28;20025;-74
2021/07/05 01:51:59;;;;;;;3.55;2.50;;;20.60;99.90;;;;;;5018802;28;20589;-75
2021/07/05 01:54:24;;;;;;;3.28;2.80;;;20.60;99.90;;;;;;5020518;28;20377;-73
2021/07/05 01:56:50;;;;;;;3.30;2.03;;;20.60;99.90;;;;;;5026412;28;20014;-73
2021/07/05 01:59:16;;;;;;;2.83;1.73;;;20.60;99.90;;;;;;5029622;28;20425;-73
2021/07/05 02:01:42;;;;;;;3.58;1.88;;;20.60;99.90;;;;;;5027995;28;20100;-74
2021/07/05 02:04:08;;;;;;;2.22;2.00;;;20.60;99.90;;;;;;5024447;28;20026;-74
2021/07/05 02:06:35;;;;;;;2.88;2.58;;;20.70;99.90;;;;;;5025694;28;20083;-74
2021/07/05 02:09:07;;;;;;;3.40;2.40;;;20.60;99.90;;;;;;5011904;28;20551;-74
2021/07/05 02:11:32;;;;;;;;;;;20.70;99.90;;;;;;5012063;28;20109;-74
2021/07/05 02:13:58;;;;;;;3.83;2.50;;;20.70;99.90;;;;;;5011715;28;20059;-73
2021/07/05 02:16:24;;;;;;;4.60;2.80;;;20.70;99.90;;;;;;5012138;28;20542;-74
2021/07/05 02:18:50;;;;;;;5.10;2.42;;;20.70;99.90;;;;;;5021805;28;20022;-73
2021/07/05 02:21:15;;;;;;;3.28;2.10;;;20.70;99.90;;;;;;5023772;28;20101;-73
2021/07/05 02:23:41;;;;;;;4.53;2.88;;;20.70;99.90;;;;;;5011894;28;20046;-73
2021/07/05 02:26:07;;;;;;;4.90;2.63;;;20.70;99.90;;;;;;5031258;28;20033;-73
2021/07/05 02:28:37;;;;;;;2.53;2.25;;;20.70;99.90;;;;;;5012571;28;20084;-74
2021/07/05 02:31:06;;;;;;;2.45;1.92;;;20.70;99.90;;;;;;5011535;28;20036;-74
2021/07/05 02:33:32;;;;;;;2.70;2.47;;;20.70;99.90;;;;;;5010172;28;20057;-73
2021/07/05 02:36:07;;;;;;;2.58;2.20;;;20.60;99.90;;;;;;5014167;28;20033;-74
2021/07/05 02:38:34;;;;;;;5.20;2.20;;;20.60;99.90;;;;;;5015279;28;20025;-73
2021/07/05 02:41:02;;;;;;;5.10;2.60;;;20.60;99.90;;;;;;5013994;28;20060;-73
2021/07/05 02:43:29;;;;;;;6.30;2.38;;;20.60;99.90;;;;;;5013074;28;20055;-73
2021/07/05 02:45:57;;;;;;;3.10;2.20;;;20.60;99.90;;;;;;5013245;28;20026;-74
2021/07/05 02:48:25;;;;;;;2.60;2.40;;;20.60;99.90;;;;;;5013896;28;20092;-75
2021/07/05 02:50:54;;;;;;;4.85;2.15;;;20.60;99.90;;;;;;5015132;28;20068;-73
2021/07/05 02:53:20;;;;;;;3.30;2.25;;;20.50;99.90;;;;;;5014927;28;20390;-74
2021/07/05 02:55:46;;;;;;;9.52;2.60;;;20.40;99.90;;;;;;5015054;28;20014;-73
2021/07/05 02:58:12;;;;;;;3.03;2.13;;;20.40;99.90;;;;;;5014911;28;20410;-73
2021/07/05 03:00:41;;;;;;;2.60;2.40;;;20.40;99.90;;;;;;5014675;28;20076;-75
2021/07/05 03:03:07;;;;;;;2.88;2.30;;;20.40;99.90;;;;;;5015170;28;20029;-74
2021/07/05 03:05:33;;;;;;;2.33;2.13;;;20.40;99.90;;;;;;5014621;28;20088;-73
2021/07/05 03:07:59;;;;;;;4.78;2.10;;;20.40;99.90;;;;;;5014209;28;20025;-74
2021/07/05 03:10:34;;;;;;;5.93;1.92;;;20.40;99.90;;;;;;5012837;28;20026;-75
2021/07/05 03:13:00;;;;;;;2.40;2.20;;;20.40;99.90;;;;;;5012844;28;20022;-73
2021/07/05 03:15:26;;;;;;;6.50;2.58;;;20.40;99.90;;;;;;5012885;28;20118;-74
2021/07/05 03:17:53;;;;;;;2.50;2.30;;;20.40;99.90;;;;;;5012811;28;20041;-73
2021/07/05 03:20:25;;;;;;;5.30;2.80;;;20.40;99.90;;;;;;5013037;28;20093;-74
2021/07/05 03:22:52;;;;;;;8.25;3.10;;;20.40;99.90;;;;;;5012748;28;20132;-73
2021/07/05 03:25:22;;;;;;;4.43;2.10;;;20.40;99.90;;;;;;5014565;28;20048;-73
2021/07/05 03:27:49;;;;;;;3.53;2.22;;;20.40;99.90;;;;;;5014548;28;20029;-74
2021/07/05 03:30:17;;;;;;;8.25;2.20;;;20.50;99.90;;;;;;5014649;28;20072;-74
2021/07/05 03:32:43;;;;;;;8.13;2.30;;;20.60;99.90;;;;;;5014048;28;20026;-74
2021/07/05 03:35:10;;;;;;;4.95;1.77;;;20.60;99.90;;;;;;5014330;28;20022;-72
2021/07/05 03:37:36;;;;;;;8.15;1.80;;;20.60;99.90;;;;;;5014291;28;20030;-73
2021/07/05 03:40:05;;;;;;;4.40;1.95;;;20.60;99.90;;;;;;5014317;28;20022;-74
2021/07/05 03:42:31;;;;;;;1.90;1.80;;;20.60;99.90;;;;;;5014515;28;20036;-73
2021/07/05 03:44:56;;;;;;;2.03;1.63;;;20.60;99.90;;;;;;5014039;28;20030;-75
2021/07/05 03:47:32;;;;;;;3.40;1.70;;;20.60;99.90;;;;;;5013590;28;20050;-73
2021/07/05 03:49:58;;;;;;;4.50;1.80;;;20.60;99.90;;;;;;5014160;28;20026;-73
2021/07/05 03:52:23;;;;;;;4.75;1.60;;;20.60;99.90;;;;;;5014124;28;20080;-73
2021/07/05 03:54:49;;;;;;;3.92;2.10;;;20.60;99.90;;;;;;5013326;28;20029;-74
2021/07/05 03:57:25;;;;;;;2.35;1.73;;;20.70;99.90;;;;;;5013941;28;20458;-76
2021/07/05 03:59:53;;;;;;;4.45;1.75;;;20.70;99.90;;;;;;5014041;28;20026;-73
2021/07/05 04:02:20;;;;;;;4.00;2.17;;;20.70;99.90;;;;;;5012850;28;20401;-73
2021/07/05 04:04:46;;;;;;;3.10;1.75;;;20.70;99.90;;;;;;5013793;28;20132;-74
2021/07/05 04:07:13;;;;;;;2.80;1.73;;;20.70;99.90;;;;;;5013692;28;20032;-73
2021/07/05 04:09:42;;;;;;;3.05;2.17;;;20.80;99.90;;;;;;5013745;28;20068;-73
2021/07/05 04:12:10;;;;;;;2.40;2.20;;;20.70;99.90;;;;;;5013442;28;20462;-74
2021/07/05 04:14:36;;;;;;;2.35;2.15;;;20.80;99.90;;;;;;5013307;28;20018;-73
2021/07/05 04:17:02;;;;;;;5.80;1.90;;;20.80;99.90;;;;;;5013301;28;20163;-73
2021/07/05 04:19:27;;;;;;;1.90;1.60;;;20.90;99.90;;;;;;5013443;28;20471;-74
2021/07/05 04:21:53;;;;;;;6.70;1.88;;;20.90;99.90;;;;;;5013616;28;20036;-73
2021/07/05 04:24:19;;;;;;;3.53;2.20;;;21.00;99.90;;;;;;5012952;28;20046;-75
2021/07/05 04:26:45;;;;;;;1.98;1.75;;;21.00;99.90;;;;;;5012055;28;20034;-73
2021/07/05 04:29:11;;;;;;;1.90;1.52;;;21.10;99.90;;;;;;5013484;28;20093;-74
2021/07/05 04:31:37;;;;;;;3.40;1.30;;;21.30;99.90;;;;;;5012609;28;20121;-73
2021/07/05 04:34:02;;;;;;;1.40;1.30;;;21.40;99.90;;;;;;5012720;28;20018;-74
2021/07/05 04:36:28;;;;;;;1.98;1.13;;;21.50;99.90;;;;;;5011507;28;20034;-74
2021/07/05 04:38:54;;;;;;;1.75;1.15;;;21.60;99.90;;;;;;5012768;28;20014;-73
2021/07/05 04:41:20;;;;;;;1.23;1.10;;;21.70;99.90;;;;;;5011495;28;20060;-75
2021/07/05 04:43:46;;;;;;;1.35;0.88;;;21.90;99.90;;;;;;5012741;28;20560;-72
2021/07/05 04:46:11;;;;;;;6.20;1.40;;;22.00;99.90;;;;;;5012436;28;20419;-75
2021/07/05 04:48:37;;;;;;;0.82;0.82;;;22.10;99.90;;;;;;5012690;28;20060;-73
2021/07/05 04:51:04;;;;;;;1.25;1.00;;;22.40;99.90;;;;;;5031258;28;20036;-72
2021/07/05 04:53:30;;;;;;;4.68;1.05;;;23.60;99.90;;;;;;5015011;28;20022;-73
2021/07/05 04:55:59;;;;;;;4.78;1.90;;;25.40;99.90;;;;;;5012867;28;20051;-74
2021/07/05 04:58:25;;;;;;;8.77;1.30;;;27.30;99.90;;;;;;5011839;28;20028;-76
2021/07/05 05:00:51;;;;;;;6.50;1.30;;;29.00;99.90;;;;;;5014332;28;20113;-75
2021/07/05 05:03:17;;;;;;;2.15;1.23;;;30.40;99.90;;;;;;5011971;28;20057;-76
2021/07/05 05:05:44;;;;;;;16.13;2.10;;;31.50;99.90;;;;;;5013018;28;20038;-75
2021/07/05 05:08:11;;;;;;;1.20;1.10;;;32.50;99.90;;;;;;5011228;28;20398;-79
2021/07/05 05:10:38;;;;;;;7.80;1.50;;;32.10;99.90;;;;;;5013105;28;20026;-76
2021/07/05 05:13:03;;;;;;;3.33;1.50;;;31.70;99.90;;;;;;5011714;28;20053;-75
2021/07/05 05:15:29;;;;;;;4.63;1.40;;;32.40;99.90;;;;;;5011559;28;20076;-75
2021/07/05 05:17:55;;;;;;;2.13;1.25;;;32.90;99.90;;;;;;5011042;28;20030;-75
2021/07/05 05:20:22;;;;;;;0.95;0.93;;;33.80;99.90;;;;;;5012179;28;20030;-76
2021/07/05 05:22:49;;;;;;;2.13;1.40;;;34.60;99.90;;;;;;5011350;28;20156;-75
2021/07/05 05:25:16;;;;;;;4.10;1.48;;;35.60;99.90;;;;;;5012236;28;20083;-76
2021/07/05 05:27:42;;;;;;;1.88;1.23;;;36.30;99.90;;;;;;5012188;28;20433;-76
2021/07/05 05:30:11;;;;;;;3.33;1.10;;;36.80;99.90;;;;;;5011982;28;20425;-76
2021/07/05 05:32:37;;;;;;;9.77;1.58;;;37.30;99.90;;;;;;5012383;28;20025;-77
2021/07/05 05:35:05;;;;;;;4.88;0.70;;;37.80;98.90;;;;;;5012216;28;20033;-75
2021/07/05 05:37:31;;;;;;;5.80;1.20;;;38.20;97.40;;;;;;5012506;28;20030;-76
2021/07/05 05:39:57;;;;;;;3.58;0.90;;;38.50;96.50;;;;;;5012489;28;20026;-75
2021/07/05 05:42:22;;;;;;;2.35;0.68;;;38.80;95.90;;;;;;5010981;28;20024;-74
2021/07/05 05:44:48;;;;;;;6.47;2.28;;;39.10;94.70;;;;;;5010894;28;20038;-77
2021/07/05 05:47:14;;;;;;;1.50;1.20;;;39.50;99.90;;;;;;5011899;28;20018;-74
2021/07/05 05:49:40;;;;;;;5.35;1.20;;;39.90;93.50;;;;;;5026228;28;20026;-74
2021/07/05 05:52:06;;;;;;;3.45;0.65;;;40.40;92.70;;;;;;5022400;28;20041;-75
2021/07/05 05:54:32;;;;;;;2.47;0.80;;;40.00;91.70;;;;;;5024988;28;20051;-74
2021/07/05 05:56:58;;;;;;;1.00;0.75;;;38.00;92.60;;;;;;5013782;28;20466;-74
2021/07/05 05:59:24;;;;;;;4.22;0.90;;;36.00;94.40;;;;;;5013201;28;20382;-74
2021/07/05 06:01:50;;;;;;;1.33;1.13;;;34.20;96.00;;;;;;5010604;28;20068;-73
2021/07/05 06:04:19;;;;;;;2.13;1.70;;;32.90;98.30;;;;;;5011005;28;20071;-74
2021/07/05 06:06:46;;;;;;;6.97;2.17;;;32.00;99.70;;;;;;5011699;28;20034;-73
2021/07/05 06:09:12;;;;;;;2.58;1.10;;;31.10;99.90;;;;;;5012688;28;20029;-78
2021/07/05 06:11:39;;;;;;;4.93;1.23;;;30.50;99.90;;;;;;5014753;28;20037;-77
2021/07/05 06:14:06;;;;;;;3.88;1.00;;;30.00;99.90;;;;;;5015011;28;20022;-77
2021/07/05 06:16:33;;;;;;;2.42;1.17;;;29.50;99.90;;;;;;5016173;28;20033;-77
2021/07/05 06:18:59;;;;;;;8.70;1.30;;;29.10;99.90;;;;;;5024448;28;20029;-77
2021/07/05 06:21:26;;;;;;;6.20;1.40;;;28.70;99.90;;;;;;5033319;28;20034;-77
2021/07/05 06:23:53;;;;;;;5.88;1.00;;;29.60;99.90;;;;;;5016934;28;20049;-76
2021/07/05 06:26:19;;;;;;;13.60;2.03;;;32.20;99.90;;;;;;5015776;28;20033;-76
2021/07/05 06:28:45;;;;;;;6.43;0.68;;;34.70;99.00;;;;;;5015313;28;20478;-77
2021/07/05 06:31:10;;;;;;;2.78;0.55;;;35.90;96.10;;;;;;5015793;28;20036;-76
2021/07/05 06:33:36;;;;;;;6.45;0.60;;;37.30;94.60;;;;;;5015629;28;20471;-75
2021/07/05 06:36:02;;;;;;;3.47;0.50;;;38.30;93.20;;;;;;5015841;28;20097;-76
2021/07/05 06:38:28;;;;;;;1.80;0.30;;;39.30;91.90;;;;;;5015293;28;20478;-76
2021/07/05 06:40:56;;;;;;;0.70;0.43;;;39.80;90.00;;;;;;5014704;28;20096;-76
2021/07/05 06:43:22;;;;;;;1.02;0.50;;;40.40;88.80;;;;;;5015525;28;20026;-81
2021/07/05 06:45:48;;;;;;;1.90;0.50;;;40.90;85.30;;;;;;5015189;28;20033;-77
2021/07/05 06:48:14;;;;;;;4.75;1.08;;;41.50;83.60;;;;;;5015024;28;20100;-76
2021/07/05 06:50:39;;;;;;;1.58;0.50;;;41.80;83.70;;;;;;5015232;28;20126;-80
2021/07/05 06:53:06;;;;;;;2.03;0.60;;;42.00;82.20;;;;;;5015400;28;20021;-79
2021/07/05 06:55:32;;;;;;;33.92;3.67;;;41.80;81.80;;;;;;5015292;28;20101;-79
2021/07/05 06:57:58;;;;;;;1.80;0.90;;;41.50;82.60;;;;;;5014992;28;20108;-80
2021/07/05 07:00:27;;;;;;;3.13;0.82;;;41.20;81.40;;;;;;5018823;28;20100;-79
2021/07/05 07:02:54;;;;;;;5.55;0.98;;;40.50;82.20;;;;;;5031504;28;20025;-80
2021/07/05 07:05:22;;;;;;;4.38;1.02;;;39.10;83.20;;;;;;5021222;28;20383;-80
2021/07/05 07:07:57;;;;;;;1.55;0.70;;;37.50;86.00;;;;;;5015365;28;20721;-79
2021/07/05 07:10:25;;;;;;;1.25;0.82;;;36.40;89.40;;;;;;5026548;28;20044;-78
2021/07/05 07:12:52;;;;;;;1.92;1.30;;;35.50;90.20;;;;;;5024058;28;20029;-79
2021/07/05 07:15:23;;;;;;;2.38;0.70;;;34.80;91.40;;;;;;5020171;28;20041;-78
2021/07/05 07:17:53;;;;;;;6.00;0.87;;;34.00;92.30;;;;;;5014540;28;20036;-76
2021/07/05 07:20:19;;;;;;;3.22;0.70;;;33.30;92.70;;;;;;5015284;28;20038;-76
2021/07/05 07:22:45;;;;;;;4.85;0.88;;;32.80;92.90;;;;;;5013583;28;20042;-76
2021/07/05 07:25:13;;;;;;;6.10;0.65;;;32.70;93.80;;;;;;5014874;28;20037;-75
2021/07/05 07:27:39;;;;;;;1.00;0.80;;;32.50;93.20;;;;;;5012737;28;20382;-75
2021/07/05 07:30:07;;;;;;;2.10;0.90;;;32.30;93.00;;;;;;5014559;28;20057;-76
2021/07/05 07:32:33;;;;;;;4.55;0.80;;;32.10;92.80;;;;;;5011875;28;20030;-76
2021/07/05 07:34:59;;;;;;;2.30;0.60;;;32.00;93.40;;;;;;5012602;28;20053;-77
2021/07/05 07:37:25;;;;;;;7.03;0.80;;;32.00;93.50;;;;;;5015497;28;20061;-76
2021/07/05 07:40:09;;;;;;;2.53;1.20;;;31.90;94.60;;;;;;5015072;28;20475;-73
2021/07/05 07:42:35;;;;;;;5.60;0.77;;;31.90;95.30;;;;;;5020520;28;20022;-74
2021/07/05 07:45:00;;;;;;;1.25;1.02;;;31.50;95.60;;;;;;5013013;28;20375;-74
2021/07/05 07:47:26;;;;;;;11.05;1.60;;;31.40;96.50;;;;;;5012786;28;20131;-74
2021/07/05 07:49:52;;;;;;;2.45;1.45;;;31.20;97.10;;;;;;5011479;28;20124;-75
2021/07/05 07:52:18;;;;;;;5.18;1.50;;;31.10;96.80;;;;;;5011710;28;20032;-74
2021/07/05 07:54:43;;;;;;;2.35;1.10;;;31.00;97.40;;;;;;5011484;28;20018;-74
2021/07/05 07:57:16;;;;;;;3.00;1.40;;;30.90;97.80;;;;;;5010004;28;20068;-73
2021/07/05 07:59:42;;;;;;;3.85;1.40;;;30.90;98.10;;;;;;5012319;28;20441;-74
2021/07/05 08:02:08;;;;;;;5.88;1.35;;;30.70;98.80;;;;;;5013767;28;20017;-74
2021/07/05 08:04:34;;;;;;;2.88;1.05;;;30.60;98.90;;;;;;5012515;28;20479;-74
2021/07/05 08:06:59;;;;;;;5.68;1.23;;;30.60;99.50;;;;;;5013772;28;20040;-74
2021/07/05 08:09:26;;;;;;;4.22;1.70;;;30.60;99.50;;;;;;5016832;28;20033;-74
2021/07/05 08:11:51;;;;;;;1.70;1.60;;;30.70;99.50;;;;;;5009172;28;20494;-73
2021/07/05 08:14:17;;;;;;;2.05;1.45;;;30.80;99.30;;;;;;5012982;28;20064;-73
2021/07/05 08:16:43;;;;;;;4.53;1.63;;;30.80;99.30;;;;;;5012001;28;20076;-73
2021/07/05 08:19:08;;;;;;;4.95;1.38;;;30.70;99.60;;;;;;5012820;28;20022;-73
2021/07/05 08:21:36;;;;;;;2.40;1.23;;;30.60;99.90;;;;;;5014816;28;20514;-73
2021/07/05 08:24:03;;;;;;;3.00;1.45;;;30.80;99.80;;;;;;5017757;28;20050;-73
2021/07/05 08:26:29;;;;;;;1.75;1.33;;;30.90;99.60;;;;;;5013096;28;20034;-73
2021/07/05 08:28:55;;;;;;;6.07;1.23;;;30.90;99.30;;;;;;5012980;28;20076;-72
2021/07/05 08:31:21;;;;;;;3.10;1.35;;;30.80;99.70;;;;;;5013161;28;20047;-73
2021/07/05 08:33:47;;;;;;;2.90;0.70;;;31.00;99.90;;;;;;5021181;28;20021;-77
2021/07/05 08:36:13;;;;;;;2.25;1.27;;;30.80;97.60;;;;;;5023408;28;20026;-77
2021/07/05 08:38:40;;;;;;;3.70;1.60;;;31.00;98.70;;;;;;5013819;28;20049;-77
2021/07/05 08:41:06;;;;;;;4.25;1.50;;;31.10;99.30;;;;;;5013187;28;20391;-77
2021/07/05 08:43:32;;;;;;;2.00;1.15;;;31.20;99.50;;;;;;5022871;28;20482;-77
2021/07/05 08:46:04;;;;;;;3.58;0.90;;;31.30;99.40;;;;;;5028689;28;20038;-73
2021/07/05 08:48:32;;;;;;;1.83;0.80;;;31.30;98.20;;;;;;5024378;28;20014;-73
2021/07/05 08:51:04;;;;;;;1.80;0.82;;;30.80;96.40;;;;;;5021398;28;20033;-73
2021/07/05 08:53:30;;;;;;;6.38;1.20;;;30.40;97.10;;;;;;5013353;28;20076;-74
2021/07/05 08:55:56;;;;;;;4.50;1.70;;;30.20;97.70;;;;;;5012752;28;20030;-74
2021/07/05 08:58:22;;;;;;;4.22;1.33;;;30.30;99.70;;;;;;5012668;28;20104;-74
2021/07/05 09:00:48;;;;;;;4.45;0.95;;;30.50;99.90;;;;;;5013288;28;20493;-75
2021/07/05 09:03:14;;;;;;;3.55;0.80;;;30.70;98.70;;;;;;5012262;28;20025;-75
2021/07/05 09:05:40;;;;;;;3.75;1.83;;;30.50;95.20;;;;;;5011255;28;20033;-74
2021/07/05 09:08:10;;;;;;;4.93;0.98;;;30.20;95.70;;;;;;5011091;28;20101;-76
2021/07/05 09:10:52;;;;;;;4.20;1.58;;;30.10;95.80;;;;;;5009506;28;20420;-74
2021/07/05 09:13:23;;;;;;;3.50;1.48;;;30.10;96.90;;;;;;5009357;28;20033;-76
2021/07/05 09:15:58;;;;;;;5.97;1.50;;;30.00;96.40;;;;;;5011202;28;20096;-74
2021/07/05 09:18:28;;;;;;;0.60;0.57;;;30.20;96.10;;;;;;5010756;28;20029;-76
2021/07/05 09:21:15;;;;;;;1.80;0.60;;;30.40;95.50;;;;;;5011325;28;20026;-76
2021/07/05 09:24:01;;;;;;;3.03;1.63;;;30.70;95.30;;;;;;5012631;28;20034;-76
2021/07/05 09:26:29;;;;;;;0.60;0.60;;;30.80;94.80;;;;;;5010672;28;20112;-78
2021/07/05 09:28:55;;;;;;;1.05;0.80;;;30.70;94.50;;;;;;5011841;28;20021;-76
2021/07/05 09:31:36;;;;;;;4.90;1.10;;;30.80;94.80;;;;;;5010895;28;20552;-76
2021/07/05 09:34:04;;;;;;;0.70;0.70;;;30.90;94.20;;;;;;5009009;28;20033;-76
2021/07/05 09:36:30;;;;;;;1.70;1.20;;;31.10;94.60;;;;;;5010549;28;20030;-76
2021/07/05 09:38:56;;;;;;;9.10;2.65;;;31.00;93.00;;;;;;5010733;28;20451;-79
2021/07/05 09:41:24;;;;;;;7.40;1.50;;;30.70;94.70;;;;;;5010614;28;20084;-76
2021/07/05 09:43:55;;;;;;;1.00;0.82;;;30.80;94.60;;;;;;5009975;28;20029;-80
2021/07/05 09:46:35;;;;;;;2.75;0.90;;;31.10;93.80;;;;;;5010553;28;20042;-78
2021/07/05 09:49:13;;;;;;;5.00;2.30;;;31.30;93.50;;;;;;5009214;28;20026;-74
2021/07/05 09:51:45;;;;;;;2.70;1.63;;;31.50;93.10;;;;;;5009641;28;20097;-78
2021/07/05 09:54:16;;;;;;;1.05;0.90;;;31.40;93.40;;;;;;5010565;28;20018;-78
2021/07/05 09:56:42;;;;;;;2.00;1.25;;;31.20;93.10;;;;;;5007418;28;20076;-78
2021/07/05 09:59:19;;;;;;;5.55;1.38;;;31.10;93.60;;;;;;5009569;28;20761;-77
2021/07/05 10:01:47;;;;;;;6.18;1.20;;;31.10;93.30;;;;;;5008921;28;20538;-78
2021/07/05 10:04:22;;;;;;;3.28;1.30;;;31.10;93.40;;;;;;5008692;28;20065;-78
2021/07/05 10:06:48;;;;;;;2.35;1.58;;;30.80;93.10;;;;;;5010252;28;20636;-77
2021/07/05 10:09:33;;;;;;;1.42;1.30;;;30.60;93.10;;;;;;5010027;28;20085;-79
2021/07/05 10:12:19;;;;;;;12.40;1.45;;;30.30;93.10;;;;;;5010354;28;20442;-79
2021/07/05 10:15:09;;;;;;;3.65;1.27;;;30.50;93.90;;;;;;5009974;28;20026;-75
2021/07/05 10:17:40;;;;;;;1.23;1.10;;;30.30;93.00;;;;;;5010059;28;20030;-77
2021/07/05 10:20:11;;;;;;;1.20;1.10;;;30.20;93.40;;;;;;5009913;28;20029;-78
2021/07/05 10:22:41;;;;;;;1.42;1.33;;;30.10;93.40;;;;;;5010011;28;20088;-79
2021/07/05 10:25:08;;;;;;;2.00;1.30;;;29.80;93.50;;;;;;5011510;28;20587;-76
2021/07/05 10:27:34;;;;;;;1.98;1.02;;;29.80;94.00;;;;;;5009958;28;20036;-78
2021/07/05 10:30:07;;;;;;;1.85;1.27;;;30.00;94.20;;;;;;5008287;28;20601;-77
2021/07/05 10:32:32;;;;;;;4.05;1.65;;;29.50;94.20;;;;;;5009899;28;20030;-81
2021/07/05 10:34:59;;;;;;;2.47;1.00;;;29.30;94.90;;;;;;5011296;28;20033;-79
2021/07/05 10:37:34;;;;;;;2.20;1.20;;;29.30;94.80;;;;;;5009536;28;20510;-80
2021/07/05 10:40:01;;;;;;;2.28;1.40;;;29.40;94.80;;;;;;5016128;28;20026;-79
2021/07/05 10:42:34;;;;;;;3.33;1.30;;;29.30;94.40;;;;;;5021540;28;20582;-75
2021/07/05 10:45:00;;;;;;;1.45;1.35;;;29.50;94.60;;;;;;5011389;28;20018;-80
2021/07/05 10:47:54;;;;;;;16.10;1.92;;;29.60;94.40;;;;;;5010049;28;20439;-81
2021/07/05 10:50:48;;;;;;;2.60;1.40;;;29.90;94.90;;;;;;5010309;28;20109;-76
2021/07/05 10:53:37;;;;;;;1.00;1.00;;;29.80;93.90;;;;;;5004979;28;20038;-80
2021/07/05 10:56:23;;;;;;;3.70;1.60;;;29.90;94.00;;;;;;5013677;28;20072;-80
2021/07/05 10:58:49;;;;;;;7.93;1.52;;;30.00;94.00;;;;;;5023284;28;20113;-76
2021/07/05 11:01:16;;;;;;;1.20;1.10;;;29.90;93.70;;;;;;5023577;28;20101;-78
2021/07/05 11:03:42;;;;;;;2.95;1.42;;;29.80;93.60;;;;;;5025392;28;20029;-77
2021/07/05 11:06:14;;;;;;;1.60;1.50;;;29.70;94.10;;;;;;5013991;28;20052;-79
2021/07/05 11:08:53;;;;;;;5.18;1.60;;;29.70;93.80;;;;;;5013515;28;20079;-80
2021/07/05 11:11:31;;;;;;;3.03;1.85;;;29.80;93.70;;;;;;5013105;28;20025;-80
2021/07/05 11:14:13;;;;;;;2.58;2.13;;;30.00;93.80;;;;;;5013851;28;20084;-76
2021/07/05 11:17:00;;;;;;;3.00;1.75;;;30.30;93.60;;;;;;5014183;28;20017;-76
2021/07/05 11:19:33;;;;;;;8.38;2.30;;;30.30;92.70;;;;;;5020047;28;20060;-79
2021/07/05 11:22:22;;;;;;;5.32;2.50;;;29.80;92.60;;;;;;5012032;28;20117;-75
2021/07/05 11:24:54;;;;;;;4.93;2.30;;;29.80;92.90;;;;;;5016089;28;20109;-75
2021/07/05 11:27:37;;;;;;;5.47;2.10;;;29.90;93.20;;;;;;5013687;28;20482;-78
2021/07/05 11:30:17;;;;;;;4.75;2.30;;;29.90;93.00;;;;;;5012108;28;20022;-77
2021/07/05 11:32:45;;;;;;;4.05;1.70;;;29.80;93.30;;;;;;5013369;28;20100;-76
2021/07/05 11:35:31;;;;;;;4.57;1.50;;;29.70;93.70;;;;;;5013917;28;20028;-77
2021/07/05 11:38:04;;;;;;;2.90;1.85;;;29.70;94.10;;;;;;5013788;28;20049;-78
2021/07/05 11:41:03;;;;;;;3.55;2.00;;;29.90;94.00;;;;;;5014519;28;20025;-76
2021/07/05 11:43:54;;;;;;;3.78;1.92;;;30.10;93.30;;;;;;5003997;28;20042;-75
2021/07/05 11:46:29;;;;;;;2.13;1.70;;;29.60;93.90;;;;;;5016514;28;20026;-76
2021/07/05 11:49:00;;;;;;;3.90;2.00;;;29.60;93.90;;;;;;5019297;28;20379;-76
2021/07/05 11:51:33;;;;;;;4.53;2.33;;;29.60;94.00;;;;;;5016420;28;20029;-78
2021/07/05 11:54:13;;;;;;;2.38;2.00;;;29.70;94.00;;;;;;5015828;28;20022;-77
2021/07/05 11:56:51;;;;;;;4.55;2.38;;;29.90;93.10;;;;;;5016385;28;20029;-82
2021/07/05 11:59:32;;;;;;;2.58;1.90;;;30.10;93.50;;;;;;5013328;28;20843;-76
2021/07/05 12:02:04;;;;;;;12.95;3.38;;;30.00;92.50;;;;;;5013907;28;20565;-80
2021/07/05 12:04:40;;;;;;;2.92;2.50;;;29.80;93.70;;;;;;5016707;28;20022;-77
2021/07/05 12:07:08;;;;;;;11.15;2.95;;;29.70;93.80;;;;;;5013259;28;20038;-78
2021/07/05 12:09:35;;;;;;;5.45;3.15;;;29.60;94.60;;;;;;5017512;28;20436;-78
2021/07/05 12:12:18;;;;;;;6.05;2.05;;;29.60;94.20;;;;;;5015072;28;20034;-76
2021/07/05 12:14:46;;;;;;;5.05;2.53;;;29.50;94.10;;;;;;5017784;28;20108;-75
2021/07/05 12:17:13;;;;;;;9.73;2.90;;;29.50;94.20;;;;;;5017226;28;20049;-76
2021/07/05 12:19:42;;;;;;;5.80;3.50;;;29.40;93.90;;;;;;5017366;28;20033;-77
2021/07/05 12:22:11;;;;;;;4.70;2.72;;;29.40;93.80;;;;;;5020770;28;20468;-77
2021/07/05 12:24:41;;;;;;;4.95;2.22;;;29.30;94.10;;;;;;5017353;28;20092;-76
2021/07/05 12:27:19;;;;;;;4.90;2.80;;;29.40;93.60;;;;;;5016714;28;20033;-78
2021/07/05 12:29:52;;;;;;;3.75;2.47;;;29.40;94.10;;;;;;5021584;28;20069;-76
2021/07/05 12:32:33;;;;;;;2.58;2.30;;;29.60;93.80;;;;;;5018295;28;20030;-78
2021/07/05 12:35:08;;;;;;;3.63;2.20;;;29.60;93.60;;;;;;5032403;28;20029;-80
2021/07/05 12:37:47;;;;;;;15.82;4.82;;;29.70;94.00;;;;;;5024572;28;20402;-79
2021/07/05 12:40:20;;;;;;;7.65;2.50;;;29.60;94.30;;;;;;5015387;28;20038;-77
2021/07/05 12:42:49;;;;;;;14.02;3.47;;;29.60;94.40;;;;;;5024045;28;20010;-79
2021/07/05 12:45:27;;;;;;;8.13;2.70;;;29.50;94.00;;;;;;5025289;28;20022;-77
2021/07/05 12:48:13;;;;;;;2.33;2.03;;;29.60;94.20;;;;;;5030187;28;20052;-79
2021/07/05 12:51:03;;;;;;;3.20;1.98;;;29.70;94.00;;;;;;5026822;28;20049;-79
2021/07/05 12:53:41;;;;;;;3.88;1.83;;;29.50;94.20;;;;;;5029543;28;20390;-81
2021/07/05 12:56:18;;;;;;;6.20;2.47;;;29.30;93.80;;;;;;5038147;28;20049;-80